Kamikawa Maru — JG5687 — position and weather

sailwx.info

Track history (hours):
 
Tides and Currents Weather Stations Pressure Air Temp Water Temp Dewpoint Dewpoint Depression Visibility Wind Speed Wind Dir Waves Ship Positions

Kamikawa Maru

Last reported at 2016-Jul-26 11:33 UTC. Time now 2016-Jul-26 12:16 UTC.
Position N 35°16' E 139°46'.

Length 162 m; draft 6.8 m.

Type: Cargo ship. MMSI: 431101012.

Date/timePositionNaut miles runAvg speedWind from/ knotsBaromVisibWave heightAir tempDewpointWater temp
2016-Jul-26 11:33N 35°16' E 139°46'1313.5
2016-Jul-26 10:33N 35°29' E 139°50'9 8.7
2016-Jul-26 09:28N 35°38' E 139°46'0 0.0
2016-Jul-26 08:31N 35°38' E 139°46'0 0.0
2016-Jul-26 07:31N 35°38' E 139°46'0 0.1
2016-Jul-26 06:31N 35°38' E 139°46'0 0.0
2016-Jul-26 05:31N 35°38' E 139°46'0 0.0
2016-Jul-26 04:28N 35°38' E 139°46'0 0.0
2016-Jul-26 03:31N 35°38' E 139°46'0 0.0
2016-Jul-26 02:25N 35°38' E 139°46'0 0.0
2016-Jul-26 01:31N 35°38' E 139°46'0 0.0
2016-Jul-26 00:31N 35°38' E 139°46'0 0.1
2016-Jul-25 23:34N 35°38' E 139°46'1211.8
2016-Jul-25 22:34N 35°26' E 139°49'1212.4
2016-Jul-25 21:33N 35°14' E 139°47'1616.0
2016-Jul-25 20:33N 35°00' E 139°37'1817.7
2016-Jul-25 19:33N 34°49' E 139°20'41 1.2
2016-Jul-24 09:04N 34°32' E 138°35'4718.7
2016-Jul-24 06:32N 34°55' E 139°25'2020.0
2016-Jul-24 05:33N 35°08' E 139°43'1413.8
2016-Jul-24 04:33N 35°21' E 139°42'1515.2
2016-Jul-24 03:33N 35°36' E 139°47'2 1.9
2016-Jul-24 02:32N 35°38' E 139°46'0 0.0
2016-Jul-24 01:32N 35°38' E 139°46'0 0.0
2016-Jul-24 00:32N 35°38' E 139°46'0 0.1
2016-Jul-23 23:34N 35°38' E 139°46'1111.1
2016-Jul-23 22:33N 35°27' E 139°50'1211.8
2016-Jul-23 21:34N 35°16' E 139°46'1413.8
2016-Jul-23 20:33N 35°02' E 139°45'1513.9
2016-Jul-23 19:30N 34°51' E 139°56'1718.1
2016-Jul-23 18:33N 34°58' E 140°14'1917.5
2016-Jul-23 17:29N 35°08' E 140°34'3316.9
2016-Jul-23 15:33N 35°36' E 140°55'2417.1
2016-Jul-23 14:09N 35°59' E 141°00'  
2016-Jul-19 19:32N 36°24' E 141°04'2319.1
2016-Jul-19 18:18N 36°00' E 141°01'1719.3
2016-Jul-19 17:24N 35°43' E 140°57'1719.6
2016-Jul-19 16:33N 35°29' E 140°47'2121.1
2016-Jul-19 15:33N 35°11' E 140°34'2020.1
2016-Jul-19 14:33N 34°59' E 140°13'1919.4
2016-Jul-19 13:33N 34°52' E 139°51'1615.7
2016-Jul-19 12:33N 35°06' E 139°44'1413.8
2016-Jul-19 11:33N 35°20' E 139°42'1515.3
2016-Jul-19 10:34N 35°35' E 139°48'4 3.3
2016-Jul-19 09:29N 35°38' E 139°46'0 0.0
2016-Jul-19 08:32N 35°38' E 139°46'0 0.0
2016-Jul-19 07:29N 35°38' E 139°46'0 0.0
2016-Jul-19 04:23N 35°38' E 139°46'0 0.0
2016-Jul-19 03:29N 35°38' E 139°46'0 0.0
2016-Jul-19 02:29N 35°38' E 139°46'0 0.0
2016-Jul-19 01:32N 35°38' E 139°46'0 0.0
2016-Jul-19 00:29N 35°38' E 139°46'0 0.1
2016-Jul-18 23:33N 35°38' E 139°46'1211.7
2016-Jul-18 22:33N 35°26' E 139°49'1211.6
2016-Jul-18 21:33N 35°15' E 139°47'1616.4
2016-Jul-18 20:33N 35°00' E 139°38'64 2.0
2016-Jul-17 12:04N 34°30' E 138°29'4618.1
2016-Jul-17 09:31N 34°50' E 139°19'1919.3
2016-Jul-17 08:32N 35°02' E 139°37'1515.6
2016-Jul-17 07:33N 35°16' E 139°46'1313.6
2016-Jul-17 06:34N 35°29' E 139°50'10 4.5
2016-Jul-17 04:24N 35°38' E 139°46'0 0.0
2016-Jul-17 03:27N 35°38' E 139°46'0 0.1
2016-Jul-17 02:33N 35°38' E 139°46'0 0.0
2016-Jul-17 01:27N 35°38' E 139°46'0 0.0
2016-Jul-17 00:33N 35°38' E 139°46'0 0.1
2016-Jul-16 23:33N 35°38' E 139°46'1110.9
2016-Jul-16 22:33N 35°28' E 139°50'1212.3
2016-Jul-16 21:33N 35°15' E 139°47'1514.6
2016-Jul-16 20:33N 35°01' E 139°44'1413.8
2016-Jul-16 19:33N 34°53' E 139°58'1717.3
2016-Jul-16 18:33N 35°01' E 140°17'1716.7
2016-Jul-16 17:33N 35°11' E 140°33'1716.2
2016-Jul-16 16:31N 35°24' E 140°46'1516.0
2016-Jul-16 15:34N 35°37' E 140°56'2117.0
2016-Jul-16 14:21N 35°57' E 141°02'  
Track history (hours):
 
Tides and Currents Weather Stations Pressure Air Temp Water Temp Dewpoint Dewpoint Depression Visibility Wind Speed Wind Dir Waves Ship Positions

Kamikawa Maru

Last reported at 2016-Jul-26 11:33 UTC. Time now 2016-Jul-26 12:16 UTC.
Position N 35°16' E 139°46'.

Length 162 m; draft 6.8 m.

Type: Cargo ship. MMSI: 431101012.

Date/timePositionNaut miles runAvg speedWind from/ knotsBaromVisibWave heightAir tempDewpointWater temp
2016-Jul-26 11:33N 35°16' E 139°46'1313.5
2016-Jul-26 10:33N 35°29' E 139°50'9 8.7
2016-Jul-26 09:28N 35°38' E 139°46'0 0.0
2016-Jul-26 08:31N 35°38' E 139°46'0 0.0
2016-Jul-26 07:31N 35°38' E 139°46'0 0.1
2016-Jul-26 06:31N 35°38' E 139°46'0 0.0
2016-Jul-26 05:31N 35°38' E 139°46'0 0.0
2016-Jul-26 04:28N 35°38' E 139°46'0 0.0
2016-Jul-26 03:31N 35°38' E 139°46'0 0.0
2016-Jul-26 02:25N 35°38' E 139°46'0 0.0
2016-Jul-26 01:31N 35°38' E 139°46'0 0.0
2016-Jul-26 00:31N 35°38' E 139°46'0 0.1
2016-Jul-25 23:34N 35°38' E 139°46'1211.8
2016-Jul-25 22:34N 35°26' E 139°49'1212.4
2016-Jul-25 21:33N 35°14' E 139°47'1616.0
2016-Jul-25 20:33N 35°00' E 139°37'1817.7
2016-Jul-25 19:33N 34°49' E 139°20'41 1.2
2016-Jul-24 09:04N 34°32' E 138°35'4718.7
2016-Jul-24 06:32N 34°55' E 139°25'2020.0
2016-Jul-24 05:33N 35°08' E 139°43'1413.8
2016-Jul-24 04:33N 35°21' E 139°42'1515.2
2016-Jul-24 03:33N 35°36' E 139°47'2 1.9
2016-Jul-24 02:32N 35°38' E 139°46'0 0.0
2016-Jul-24 01:32N 35°38' E 139°46'0 0.0
2016-Jul-24 00:32N 35°38' E 139°46'0 0.1
2016-Jul-23 23:34N 35°38' E 139°46'1111.1
2016-Jul-23 22:33N 35°27' E 139°50'1211.8
2016-Jul-23 21:34N 35°16' E 139°46'1413.8
2016-Jul-23 20:33N 35°02' E 139°45'1513.9
2016-Jul-23 19:30N 34°51' E 139°56'1718.1
2016-Jul-23 18:33N 34°58' E 140°14'1917.5
2016-Jul-23 17:29N 35°08' E 140°34'3316.9
2016-Jul-23 15:33N 35°36' E 140°55'2417.1
2016-Jul-23 14:09N 35°59' E 141°00'  
2016-Jul-19 19:32N 36°24' E 141°04'2319.1
2016-Jul-19 18:18N 36°00' E 141°01'1719.3
2016-Jul-19 17:24N 35°43' E 140°57'1719.6
2016-Jul-19 16:33N 35°29' E 140°47'2121.1
2016-Jul-19 15:33N 35°11' E 140°34'2020.1
2016-Jul-19 14:33N 34°59' E 140°13'1919.4
2016-Jul-19 13:33N 34°52' E 139°51'1615.7
2016-Jul-19 12:33N 35°06' E 139°44'1413.8
2016-Jul-19 11:33N 35°20' E 139°42'1515.3
2016-Jul-19 10:34N 35°35' E 139°48'4 3.3
2016-Jul-19 09:29N 35°38' E 139°46'0 0.0
2016-Jul-19 08:32N 35°38' E 139°46'0 0.0
2016-Jul-19 07:29N 35°38' E 139°46'0 0.0
2016-Jul-19 04:23N 35°38' E 139°46'0 0.0
2016-Jul-19 03:29N 35°38' E 139°46'0 0.0
2016-Jul-19 02:29N 35°38' E 139°46'0 0.0
2016-Jul-19 01:32N 35°38' E 139°46'0 0.0
2016-Jul-19 00:29N 35°38' E 139°46'0 0.1
2016-Jul-18 23:33N 35°38' E 139°46'1211.7
2016-Jul-18 22:33N 35°26' E 139°49'1211.6
2016-Jul-18 21:33N 35°15' E 139°47'1616.4
2016-Jul-18 20:33N 35°00' E 139°38'64 2.0
2016-Jul-17 12:04N 34°30' E 138°29'4618.1
2016-Jul-17 09:31N 34°50' E 139°19'1919.3
2016-Jul-17 08:32N 35°02' E 139°37'1515.6
2016-Jul-17 07:33N 35°16' E 139°46'1313.6
2016-Jul-17 06:34N 35°29' E 139°50'10 4.5
2016-Jul-17 04:24N 35°38' E 139°46'0 0.0
2016-Jul-17 03:27N 35°38' E 139°46'0 0.1
2016-Jul-17 02:33N 35°38' E 139°46'0 0.0
2016-Jul-17 01:27N 35°38' E 139°46'0 0.0
2016-Jul-17 00:33N 35°38' E 139°46'0 0.1
2016-Jul-16 23:33N 35°38' E 139°46'1110.9
2016-Jul-16 22:33N 35°28' E 139°50'1212.3
2016-Jul-16 21:33N 35°15' E 139°47'1514.6
2016-Jul-16 20:33N 35°01' E 139°44'1413.8
2016-Jul-16 19:33N 34°53' E 139°58'1717.3
2016-Jul-16 18:33N 35°01' E 140°17'1716.7
2016-Jul-16 17:33N 35°11' E 140°33'1716.2
2016-Jul-16 16:31N 35°24' E 140°46'1516.0
2016-Jul-16 15:34N 35°37' E 140°56'2117.0
2016-Jul-16 14:21N 35°57' E 141°02'  

Dump ship's entire track history